createdAt,value
2022-12-09T02:14:18.642Z,31.20
2022-12-09T02:16:24.898Z,34.42
2022-12-09T02:18:41.050Z,29.88
2022-12-09T02:20:54.847Z,24.38
2022-12-09T02:23:08.737Z,25.58
2022-12-09T02:25:14.971Z,22.67
2022-12-09T02:27:21.841Z,37.40
2022-12-09T02:29:44.648Z,28.92
2022-12-09T02:32:19.491Z,28.70
2022-12-09T02:34:23.278Z,24.42
2022-12-09T02:36:27.939Z,29.42
2022-12-09T02:38:33.407Z,27.42
2022-12-09T02:40:46.615Z,26.52
2022-12-09T02:42:50.117Z,20.80
2022-12-09T02:44:52.855Z,17.02
2022-12-09T02:46:56.358Z,19.65
2022-12-09T02:48:59.325Z,25.95
2022-12-09T02:51:07.948Z,21.42
2022-12-09T02:53:13.619Z,20.80
2022-12-09T02:55:18.060Z,20.58
2022-12-09T02:57:26.113Z,20.40
2022-12-09T02:59:28.345Z,26.02
2022-12-09T03:01:49.160Z,31.92
2022-12-09T03:03:54.904Z,23.65
2022-12-09T03:06:10.169Z,24.88
2022-12-09T03:08:24.730Z,23.73
2022-12-09T03:10:40.616Z,24.70
2022-12-09T03:12:49.941Z,22.85
2022-12-09T03:14:54.500Z,22.65
2022-12-09T03:17:14.961Z,30.45
2022-12-09T03:19:32.011Z,36.95
2022-12-09T03:21:37.730Z,20.50
2022-12-09T03:23:39.645Z,19.88
2022-12-09T03:25:47.247Z,37.60
2022-12-09T03:28:06.137Z,36.25
2022-12-09T03:30:11.154Z,37.97
2022-12-09T03:32:15.856Z,33.40
2022-12-09T03:34:24.606Z,27.73
2022-12-09T03:36:30.167Z,27.90
2022-12-09T03:38:37.906Z,35.17
2022-12-09T03:40:41.989Z,33.72
2022-12-09T03:42:53.492Z,34.15
2022-12-09T03:45:10.876Z,55.15
2022-12-09T03:47:12.978Z,33.88
2022-12-09T03:49:15.369Z,30.40
2022-12-09T03:51:55.748Z,55.00
2022-12-09T03:54:13.857Z,35.70
2022-12-09T03:56:23.183Z,43.00
2022-12-09T03:58:26.805Z,53.15
2022-12-09T04:00:30.542Z,31.42
2022-12-09T04:02:32.481Z,49.88
2022-12-09T04:04:38.665Z,65.30
2022-12-09T04:06:40.603Z,48.33
2022-12-09T04:08:42.612Z,43.05
2022-12-09T04:12:46.798Z,28.77
2022-12-09T04:14:49.038Z,33.60
2022-12-09T04:16:51.506Z,27.42
2022-12-09T04:18:53.403Z,34.33
2022-12-09T04:20:55.571Z,32.97
2022-12-09T04:22:57.911Z,41.85
2022-12-09T04:24:59.895Z,33.92
2022-12-09T04:27:03.009Z,44.95
2022-12-09T04:29:05.040Z,44.88
2022-12-09T04:33:12.204Z,35.10
2022-12-09T04:35:14.319Z,48.05
2022-12-09T04:37:16.195Z,38.72
2022-12-09T04:39:19.586Z,37.20
2022-12-09T04:41:21.525Z,37.75
2022-12-09T04:43:23.347Z,45.10
2022-12-09T04:45:25.227Z,40.60
2022-12-09T04:47:27.247Z,44.20
2022-12-09T04:49:29.574Z,57.55
2022-12-09T04:51:38.855Z,61.72
2022-12-09T04:53:42.596Z,70.30
2022-12-09T04:55:44.532Z,50.00
2022-12-09T04:57:46.760Z,53.70
2022-12-09T04:59:48.733Z,54.10
2022-12-09T05:01:50.916Z,83.70
2022-12-09T05:03:54.099Z,69.70
2022-12-09T05:05:58.008Z,112.22
2022-12-09T05:08:00.470Z,65.18
2022-12-09T05:10:03.019Z,47.17
2022-12-09T05:12:05.793Z,61.47
2022-12-09T05:14:07.867Z,51.60
2022-12-09T05:16:16.338Z,36.47
2022-12-09T05:18:19.797Z,51.15
2022-12-09T05:20:22.034Z,49.22
2022-12-09T05:22:23.946Z,41.70
2022-12-09T05:24:26.638Z,36.53
2022-12-09T05:26:28.899Z,46.67
2022-12-09T05:28:31.861Z,75.68
2022-12-09T05:30:33.773Z,46.42
2022-12-09T05:32:36.386Z,45.38
2022-12-09T05:34:39.595Z,44.85
2022-12-09T05:36:42.019Z,61.17
2022-12-09T05:38:44.456Z,47.25
2022-12-09T05:40:46.637Z,110.78
2022-12-09T05:42:49.033Z,47.20
2022-12-09T05:44:51.020Z,44.88
2022-12-09T05:46:53.052Z,51.03
2022-12-09T05:48:55.570Z,59.95
2022-12-09T05:53:00.340Z,48.38
2022-12-09T05:57:11.607Z,47.85
2022-12-09T05:59:15.110Z,53.20
2022-12-09T06:01:17.945Z,31.52
2022-12-09T08:13:32.288Z,31.30
2022-12-09T08:15:34.156Z,20.50
2022-12-09T08:17:36.459Z,42.33
2022-12-09T08:19:38.782Z,45.83
2022-12-09T08:21:41.674Z,21.55
2022-12-09T08:23:44.254Z,17.73
2022-12-09T08:25:46.676Z,32.97
2022-12-09T08:27:49.202Z,38.60
2022-12-09T08:29:51.455Z,18.17
2022-12-09T08:31:53.757Z,24.55
2022-12-09T08:33:56.647Z,18.48
2022-12-09T08:35:58.749Z,24.65
2022-12-09T08:38:01.003Z,23.83
2022-12-09T08:40:02.956Z,18.33
2022-12-09T08:42:05.543Z,17.70
2022-12-09T08:44:14.361Z,32.38
2022-12-09T08:46:16.524Z,17.90
2022-12-09T08:48:19.151Z,21.42
2022-12-09T08:50:21.395Z,18.83
2022-12-09T08:52:23.326Z,27.27
2022-12-09T08:54:25.571Z,32.35
2022-12-09T08:56:28.452Z,36.10
2022-12-09T08:58:31.411Z,65.35
2022-12-09T09:00:33.730Z,43.28
2022-12-09T09:02:36.276Z,44.00
2022-12-09T09:04:38.825Z,49.15
2022-12-09T09:06:43.456Z,34.45
2022-12-09T09:08:46.730Z,37.95
2022-12-09T09:10:49.074Z,32.22
2022-12-09T09:12:51.352Z,69.25
2022-12-09T09:14:54.796Z,53.65
2022-12-09T09:16:56.941Z,58.10
2022-12-09T09:21:01.902Z,57.45
2022-12-09T09:23:04.352Z,57.47
2022-12-09T09:25:06.962Z,53.20
2022-12-09T09:27:09.594Z,60.80
2022-12-09T09:29:14.247Z,60.45
2022-12-09T09:31:22.181Z,62.17
2022-12-09T09:33:24.412Z,45.15
2022-12-09T09:35:26.749Z,44.80
2022-12-09T09:37:31.026Z,44.70
2022-12-09T09:39:33.552Z,40.25
2022-12-09T09:42:06.202Z,30.08
2022-12-09T09:44:25.508Z,32.40
2022-12-09T09:46:34.160Z,33.85
2022-12-09T09:48:37.483Z,32.72
2022-12-09T09:50:50.704Z,31.33
2022-12-09T09:52:55.306Z,43.60
2022-12-09T09:54:58.616Z,28.48
2022-12-09T09:57:29.921Z,32.78
2022-12-09T10:00:05.597Z,28.05
2022-12-09T10:02:35.619Z,28.88
2022-12-09T10:04:56.394Z,33.80
2022-12-09T10:07:13.379Z,30.58
2022-12-09T10:09:52.784Z,47.80
2022-12-09T10:12:19.983Z,29.30
2022-12-09T10:14:53.174Z,27.85
2022-12-09T10:17:24.121Z,26.00
2022-12-09T10:19:30.978Z,25.52
2022-12-09T10:21:35.401Z,24.85
2022-12-09T10:23:37.912Z,25.98
2022-12-09T10:25:53.924Z,25.98
2022-12-09T10:28:02.353Z,31.20
2022-12-09T10:30:07.114Z,40.58
2022-12-09T10:32:19.887Z,50.30
2022-12-09T10:34:22.338Z,71.00
2022-12-09T10:36:35.239Z,55.85
2022-12-09T10:38:41.279Z,43.58
2022-12-09T10:40:46.499Z,84.07
2022-12-09T10:43:12.373Z,82.28
2022-12-09T10:45:14.472Z,68.68
2022-12-09T10:49:26.534Z,74.25
2022-12-09T10:51:35.605Z,76.13
2022-12-09T10:53:44.010Z,66.90
2022-12-09T10:55:52.180Z,65.82
2022-12-09T10:58:23.748Z,75.47
2022-12-09T11:00:31.002Z,74.15
2022-12-09T11:02:36.681Z,101.28
2022-12-09T11:04:44.266Z,88.63
2022-12-09T11:06:52.733Z,84.68
2022-12-09T11:09:00.389Z,158.40
2022-12-09T11:11:03.042Z,92.30
2022-12-09T11:13:15.261Z,83.85
2022-12-09T11:15:25.592Z,91.03
2022-12-09T11:17:31.581Z,88.32
2022-12-09T11:19:36.462Z,103.30
2022-12-09T11:21:39.470Z,144.43
2022-12-09T11:24:00.786Z,51.88
2022-12-09T11:26:14.381Z,73.25
2022-12-09T11:28:16.553Z,72.55
2022-12-09T11:31:04.857Z,192.15
2022-12-09T11:33:24.512Z,102.53
2022-12-09T11:35:32.416Z,95.70
2022-12-09T11:37:39.589Z,150.25
2022-12-09T11:39:50.529Z,102.30
2022-12-09T11:42:17.087Z,100.47
2022-12-09T11:44:27.472Z,68.57
2022-12-09T11:46:32.941Z,56.85
2022-12-09T11:48:41.666Z,47.08
2022-12-09T11:50:50.159Z,62.30
2022-12-09T11:53:07.663Z,48.53
2022-12-09T11:55:18.376Z,63.65
2022-12-09T11:57:49.546Z,37.55
2022-12-09T11:59:56.561Z,26.60
2022-12-09T14:14:58.516Z,227.43
2022-12-09T14:17:18.350Z,163.77
2022-12-09T14:19:25.986Z,197.55
2022-12-09T14:21:31.069Z,155.23
2022-12-09T14:23:33.022Z,185.30
2022-12-09T14:25:34.823Z,165.70
2022-12-09T14:27:37.388Z,165.38
2022-12-09T14:29:51.290Z,185.73
2022-12-09T14:31:55.913Z,215.73
2022-12-09T14:33:57.844Z,250.38
2022-12-09T14:36:32.977Z,296.30
2022-12-09T14:39:15.799Z,263.65
2022-12-09T14:41:45.574Z,242.43
2022-12-09T14:43:50.660Z,296.30
2022-12-09T14:46:02.421Z,233.20
2022-12-09T14:48:10.901Z,231.75
2022-12-09T14:50:19.283Z,246.35
2022-12-09T14:52:27.334Z,231.38
2022-12-09T14:54:33.461Z,215.23
2022-12-09T14:56:35.701Z,208.60
2022-12-09T14:58:37.732Z,289.85
2022-12-09T15:03:08.972Z,199.93
2022-12-09T15:05:17.392Z,231.30
2022-12-09T15:07:23.150Z,245.73
2022-12-09T15:09:25.051Z,216.65
2022-12-09T15:11:31.587Z,223.25
2022-12-09T15:13:37.827Z,212.70
2022-12-09T15:15:40.797Z,276.85
2022-12-09T15:17:57.114Z,213.52
2022-12-09T15:20:01.100Z,180.15
2022-12-09T15:22:03.429Z,175.38
2022-12-09T15:24:05.792Z,224.48
2022-12-09T15:26:09.694Z,238.32
2022-12-09T15:28:22.961Z,195.32
2022-12-09T15:30:35.816Z,208.75
2022-12-09T15:32:39.562Z,185.35
2022-12-09T15:34:41.483Z,181.73
2022-12-09T15:36:53.474Z,198.98
2022-12-09T15:39:02.993Z,208.80
2022-12-09T15:41:26.700Z,246.57
2022-12-09T15:43:28.866Z,265.85
2022-12-09T15:47:40.077Z,243.07
2022-12-09T15:49:51.080Z,241.57
2022-12-09T15:51:56.116Z,251.18
2022-12-09T15:54:03.041Z,299.95
2022-12-09T15:56:21.392Z,298.20
2022-12-09T15:58:31.112Z,236.35
2022-12-09T16:00:42.633Z,144.45
2022-12-09T16:02:45.919Z,225.25
2022-12-09T16:04:50.170Z,154.18
2022-12-09T16:06:52.383Z,172.70
2022-12-09T16:08:54.415Z,176.82
2022-12-09T16:13:12.515Z,138.95
2022-12-09T16:15:44.800Z,135.40
2022-12-09T16:17:55.679Z,127.88
2022-12-09T16:19:58.520Z,93.40
2022-12-09T16:22:00.338Z,121.07
2022-12-09T16:24:11.415Z,132.43
2022-12-09T16:26:30.592Z,82.25
2022-12-09T16:28:35.942Z,83.63
2022-12-09T16:30:46.029Z,85.90
2022-12-09T16:32:52.246Z,85.45
2022-12-09T16:34:59.235Z,75.85
2022-12-09T16:37:05.264Z,79.50
2022-12-09T16:39:12.469Z,50.35
2022-12-09T16:41:14.371Z,68.63
2022-12-09T16:43:16.363Z,37.22
2022-12-09T16:47:33.030Z,47.35
2022-12-09T16:49:34.974Z,45.53
2022-12-09T16:51:39.127Z,55.70
2022-12-09T16:53:51.653Z,48.65
2022-12-09T16:56:02.213Z,44.70
2022-12-09T16:58:04.221Z,44.95
2022-12-09T17:02:35.633Z,49.00
2022-12-09T17:04:39.696Z,46.63
2022-12-09T17:06:41.646Z,44.42
2022-12-09T17:08:45.366Z,46.03
2022-12-09T17:11:01.432Z,49.03
2022-12-09T17:13:10.221Z,93.75
2022-12-09T17:15:21.699Z,134.35
2022-12-09T17:17:29.604Z,199.13
2022-12-09T17:19:44.391Z,210.98
2022-12-09T17:21:56.329Z,219.20
2022-12-09T17:24:04.153Z,217.13
2022-12-09T17:26:21.809Z,233.13
2022-12-09T17:28:39.140Z,166.30
2022-12-09T17:30:47.555Z,131.60
2022-12-09T17:33:02.926Z,160.30
2022-12-09T17:35:16.248Z,105.38
2022-12-09T17:37:22.268Z,87.15
2022-12-09T17:39:31.496Z,136.15
2022-12-09T17:41:39.942Z,89.78
2022-12-09T17:43:48.989Z,125.97
2022-12-09T17:45:57.258Z,197.25
2022-12-09T17:48:17.516Z,113.25
2022-12-09T17:50:23.005Z,101.82
2022-12-09T17:52:31.932Z,87.90
2022-12-09T17:54:34.159Z,98.93
2022-12-09T17:56:36.482Z,96.13
2022-12-09T17:58:38.881Z,52.67
2022-12-09T18:00:41.649Z,47.65
2022-12-09T20:14:24.879Z,26.33
2022-12-09T20:16:27.268Z,27.25
2022-12-09T20:18:29.385Z,27.48
2022-12-09T20:22:34.502Z,26.02
2022-12-09T20:24:36.425Z,27.25
2022-12-09T20:26:38.735Z,27.75
2022-12-09T20:28:42.049Z,32.08
2022-12-09T20:30:44.034Z,42.33
2022-12-09T20:32:48.592Z,41.72
2022-12-09T20:34:51.434Z,78.90
2022-12-09T20:36:53.425Z,89.30
2022-12-09T20:38:58.356Z,73.18
2022-12-09T20:41:03.546Z,69.00
2022-12-09T20:43:05.481Z,38.63
2022-12-09T20:45:08.136Z,32.08
2022-12-09T20:47:10.097Z,40.83
2022-12-09T20:49:12.055Z,57.80
2022-12-09T20:51:26.033Z,58.65
2022-12-09T20:53:27.947Z,68.00
2022-12-09T20:55:30.045Z,71.68
2022-12-09T20:59:34.266Z,89.18
2022-12-09T21:01:37.065Z,122.55
2022-12-09T21:03:39.147Z,117.03
2022-12-09T21:07:45.167Z,36.15
2022-12-09T21:09:48.092Z,34.08
2022-12-09T21:11:51.071Z,38.53
2022-12-09T21:14:00.224Z,40.20
2022-12-09T21:16:08.136Z,40.50
2022-12-09T21:18:10.049Z,52.75
2022-12-09T21:20:13.226Z,42.88
2022-12-09T21:22:15.277Z,40.33
2022-12-09T21:28:22.200Z,35.88
2022-12-09T21:32:31.012Z,37.63
2022-12-09T21:34:33.477Z,38.47
2022-12-09T21:36:42.426Z,41.75
2022-12-09T21:38:45.138Z,44.75
2022-12-09T21:40:47.054Z,42.95
2022-12-09T21:42:49.117Z,48.30
2022-12-09T21:46:53.756Z,47.15
2022-12-09T21:49:03.055Z,43.45
2022-12-09T21:51:06.607Z,40.92
2022-12-09T21:53:08.829Z,42.78
2022-12-09T21:55:10.645Z,40.97
2022-12-09T21:57:12.514Z,41.00
2022-12-09T21:59:14.459Z,39.45
2022-12-09T22:01:22.868Z,41.45
2022-12-09T22:03:25.934Z,36.55
2022-12-09T22:05:27.786Z,31.13
2022-12-09T22:07:29.640Z,30.75
2022-12-09T22:09:31.514Z,28.88
2022-12-09T22:11:35.967Z,29.45
2022-12-09T22:13:39.739Z,27.73
2022-12-09T22:15:41.806Z,31.40
2022-12-09T22:17:43.767Z,27.67
2022-12-09T22:19:45.690Z,26.73
2022-12-09T22:21:48.195Z,29.80
2022-12-09T22:23:50.162Z,26.08
2022-12-09T22:25:52.002Z,26.60
2022-12-09T22:27:53.899Z,26.52
2022-12-09T22:29:55.796Z,19.38
2022-12-09T22:31:57.681Z,20.73
2022-12-09T22:34:02.780Z,21.13
2022-12-09T22:36:10.395Z,21.23
2022-12-09T22:38:14.736Z,21.98
2022-12-09T22:40:16.925Z,19.50
2022-12-09T22:42:18.902Z,16.55
2022-12-09T22:44:21.434Z,17.10
2022-12-09T22:46:28.134Z,17.23
2022-12-09T22:48:30.253Z,16.42
2022-12-09T22:50:34.763Z,20.55
2022-12-09T22:52:36.669Z,20.13
2022-12-09T22:54:38.637Z,20.27
2022-12-09T22:56:48.175Z,17.30
2022-12-09T22:58:50.559Z,15.15
2022-12-09T23:00:52.899Z,24.08
2022-12-09T23:02:55.019Z,13.15
2022-12-09T23:04:57.165Z,14.32
2022-12-09T23:11:06.909Z,15.18
2022-12-09T23:13:09.418Z,14.30
2022-12-09T23:15:11.829Z,15.05
2022-12-09T23:17:13.722Z,13.32
2022-12-09T23:19:15.723Z,15.55
2022-12-09T23:21:23.314Z,14.38
2022-12-09T23:23:25.203Z,14.70
2022-12-09T23:25:27.199Z,15.77
2022-12-09T23:29:30.913Z,15.75
2022-12-09T23:31:35.802Z,17.27
2022-12-09T23:33:39.209Z,16.30
2022-12-09T23:35:41.031Z,13.05
2022-12-09T23:37:42.964Z,13.95
2022-12-09T23:39:44.892Z,12.93
2022-12-09T23:41:47.224Z,14.32
2022-12-09T23:43:50.098Z,14.60
2022-12-09T23:45:51.973Z,15.07
2022-12-09T23:47:53.805Z,15.40
2022-12-09T23:49:55.846Z,14.90
2022-12-09T23:54:04.557Z,12.45
2022-12-09T23:56:07.431Z,10.90
2022-12-09T23:58:09.344Z,13.43
